Terminal Aerodrome Forecast
Issued by NWS

Home | Current Version | Previous Version | Text Only | Print | Product List | Glossary On
Versions: 1 2 3 4 5 6 7 8 9 10 11
643
FTUS45 KABQ 101720
TAFTCC
TAF
KTCC 101720Z 1018/1118 27010G18KT P6SM SKC
     FM102000 25015G25KT P6SM SKC
     FM110100 29010KT P6SM SKC
     FM110600 36007KT P6SM SKC
     FM111200 VRB06KT P6SM SKC
     FM111600 14006KT P6SM SKC=

USA.gov is the U.S. government's official web portal to all federal, state and local government web resources and services.